General Aviation Weather

Text Reports

Enter one or more of the following location identifiers separated by a space:

Zip Code, Four-Character ICAO or Three-Character IATA airport codes.

METAR - Aviation Routine Weather Report
KMRH - Beaufort, North Carolina
Updated at 6:58 PM GMT on July 07, 2015 (2:58 PM EDT):
METAR KMRH 071858Z AUTO 19014KT 10SM FEW014 29/25 A3013 RMK AO2 SLP204 T02940250 TSNO
TAF - Terminal Area Forecast
KMRH - Beaufort, North Carolina
Updated at 6:58 PM GMT on July 07, 2015 (2:58 PM EDT):
No TAF is currently available for this location.
Decoded:
No decoded TAF is available.
PIREP - Pilot Weather Report
KMRH - Beaufort, North Carolina
Updated at 6:58 PM GMT on July 07, 2015 (2:58 PM EDT):
No PIREP is currently available for this location.
AIRMET - Airmens Meteorological Information
KMRH - Beaufort, North Carolina
Updated at 6:58 PM GMT on July 07, 2015 (2:58 PM EDT):
No AIRMET is currently available for this location.
SIGMET - Significant Meteorological Information
KMRH - Beaufort, North Carolina
Updated at 6:58 PM GMT on July 07, 2015 (2:58 PM EDT):
No SIGMET is currently available for this location.
NOTAM - Notice to Airmen
KMRH - Beaufort, North Carolina
Updated at 6:58 PM GMT on July 07, 2015 (2:58 PM EDT):
No NOTAM is currently available for this location.
Forecast Area
KMRH - Beaufort, North Carolina
Updated at 6:58 PM GMT on July 07, 2015 (2:58 PM EDT):
No NOTAM is currently available for this location.
Aviation Weather Maps